Brighton Beach, South Carolina
Current Conditions -  °F | °C
As of 12:50 PM on Friday 21 Nov 2014 (Local Time) from KHXD Reporting Station
Clear Clear  
Wind Chill: 18°   Ceiling: Unl
Heat Index: 18°   Visibility: 10mi
Dew Point:   Wind: 8mph
Humidity: 37%   Direction: 350°N
Pressure: 30.37"   Gusts: NA
Location:  32.2133°N, 80.9033°W
Report Text: KHXD 211750Z 35007KT 10SM SKC 18/03 A3037
Loading
Personal Weather Stations






























Interactive Weather Map New forecast layout! Learn more

10-Day Weather Forecast

Advertisements
Track Severe Weather on mobile